Tropical Cyclones
[Index]
Main Index Home Page Stock Weather Photos Extreme Storms Discussion Storm News and Storm Chasing Reports Tropical Cyclones / Hurricanes / Typhoons Weather Data and Links Wild Fires / Bushfires Weather Observation Techniques Weather Picture Catalogue Tornado Pictures and Reports Stock Video Footage and DVDs for sale
Season 2008-2009 Tropical Cyclone ASMA Track Map
Season 2008-2009 Summaries (Operational Data): [AU] [SIO] [SPAC] [SH]
<<- Previous TC | 2008-2009 Season | Next TC ->>

click for intensity scale information  Lat/long Grid: Show Hide

 Date Labels: Show Hide

Operational Tropical Cyclone Data : JTWC Advisories

Name: ASMA
Number: 0901

16 Oct 2008 12:00 UTC to 23 Oct 2008 12:00 UTC

    date/time    lat    long     hPa   cat  kts
2008-10-16 12    6.1    69.2    1002         25          
2008-10-16 18    5.7    68.8    1002         25          
2008-10-17 00    5.4    68.3    1001         30          
2008-10-17 06    6.3    68.4    1000         30          
2008-10-17 12    6.7    68.6    1000         30          
2008-10-17 18    7.2    68.4    1000         30          
2008-10-18 00    8.1    68.8    1001         25          
2008-10-18 06    8.8    69.1    1002         25          
2008-10-18 12    8.7    67.7    1000         25          
2008-10-18 18    8.9    67.0    1000         25          
2008-10-19 00    9.6    66.4     999         30          
2008-10-19 06   10.4    65.6     999         30          
2008-10-19 12   11.0    64.0     998         30          
2008-10-19 18   11.3    63.4     996    1    35          
2008-10-20 00   12.2    62.6     994    1    35          
2008-10-20 06   12.7    61.8     985    1    45          
2008-10-20 12   12.0    61.3     990    1    40          
2008-10-20 18   12.0    61.4     993    1    40          
2008-10-21 00   12.1    60.3     996    1    40          
2008-10-21 06   12.1    59.3     997         30          
2008-10-21 12   11.6    58.4     998         30          
2008-10-21 18   11.0    57.2    1003         20          
2008-10-22 00   10.8    56.0    1003         20          
2008-10-22 06   11.1    54.7    1004         20          
2008-10-22 18   11.0    50.5    1002         20          
2008-10-23 00   11.0    50.0    1002         25          
2008-10-23 06   10.7    49.9    1005         20          
2008-10-23 12   11.2    48.8    1007         20          
Winds are 10-min average.

Tropical cyclone tracks developed by Michael Bath using operational warnings and advisories and Google Maps.


[Australian Severe Weather index] [Copyright Notice] [Email Contacts] [Search This Site] [Privacy Policy]
Document: tropical_cyclone_asma.htm Updated: 28 May 2013